createdAt,value
2023-04-15T00:00:38.519Z,6.76
2023-04-15T00:03:41.639Z,6.69
2023-04-15T00:06:51.677Z,6.56
2023-04-15T00:09:56.378Z,6.56
2023-04-15T00:12:59.253Z,6.57
2023-04-15T00:16:02.419Z,6.52
2023-04-15T00:19:05.248Z,6.47
2023-04-15T00:22:08.488Z,6.45
2023-04-15T00:25:11.656Z,6.38
2023-04-15T00:28:14.390Z,6.32
2023-04-15T00:31:18.735Z,6.27
2023-04-15T00:34:22.253Z,6.20
2023-04-15T00:37:25.004Z,6.15
2023-04-15T00:40:28.030Z,6.15
2023-04-15T00:43:30.759Z,6.11
2023-04-15T00:46:36.425Z,6.10
2023-04-15T00:49:39.256Z,6.09
2023-04-15T00:52:42.075Z,6.05
2023-04-15T00:55:45.471Z,6.04
2023-04-15T00:58:48.516Z,6.05
2023-04-15T01:01:52.514Z,5.99
2023-04-15T01:04:56.913Z,5.92
2023-04-15T01:07:59.737Z,5.87
2023-04-15T01:11:03.861Z,5.85
2023-04-15T01:14:07.540Z,5.78
2023-04-15T01:17:10.366Z,5.77
2023-04-15T01:20:13.490Z,5.69
2023-04-15T01:23:17.565Z,5.66
2023-04-15T01:26:20.569Z,5.63
2023-04-15T01:29:23.957Z,5.67
2023-04-15T01:32:27.346Z,5.77
2023-04-15T01:35:30.135Z,5.80
2023-04-15T01:38:33.579Z,5.80
2023-04-15T01:41:36.589Z,5.76
2023-04-15T01:44:39.360Z,5.51
2023-04-15T01:47:42.158Z,5.47
2023-04-15T01:50:46.575Z,5.54
2023-04-15T01:53:50.454Z,5.56
2023-04-15T01:56:53.732Z,5.57
2023-04-15T01:59:56.814Z,5.57
2023-04-15T02:02:59.827Z,5.56
2023-04-15T02:06:02.616Z,5.68
2023-04-15T02:09:05.308Z,5.68
2023-04-15T02:12:08.075Z,5.76
2023-04-15T02:15:11.226Z,5.83
2023-04-15T02:18:14.032Z,5.91
2023-04-15T02:21:20.492Z,5.73
2023-04-15T02:24:23.150Z,5.84
2023-04-15T02:27:26.281Z,5.93
2023-04-15T02:30:29.112Z,6.04
2023-04-15T02:33:32.523Z,6.01
2023-04-15T02:36:36.648Z,6.18
2023-04-15T02:39:41.302Z,6.25
2023-04-15T02:42:44.707Z,6.20
2023-04-15T02:45:50.223Z,6.09
2023-04-15T02:48:54.040Z,6.11
2023-04-15T02:52:00.230Z,6.08
2023-04-15T02:55:04.516Z,6.06
2023-04-15T02:58:07.330Z,6.03
2023-04-15T03:01:10.109Z,6.11
2023-04-15T03:04:13.918Z,6.26
2023-04-15T03:07:18.448Z,6.35
2023-04-15T03:10:21.959Z,6.40
2023-04-15T03:13:25.067Z,6.42
2023-04-15T03:16:29.333Z,6.48
2023-04-15T03:19:33.692Z,6.51
2023-04-15T03:22:36.884Z,6.54
2023-04-15T03:25:40.604Z,6.56
2023-04-15T03:28:43.859Z,6.56
2023-04-15T03:31:49.834Z,6.50
2023-04-15T03:34:52.936Z,6.52
2023-04-15T03:37:55.785Z,6.65
2023-04-15T03:40:58.482Z,6.66
2023-04-15T03:44:01.304Z,6.65
2023-04-15T03:47:04.033Z,6.72
2023-04-15T03:50:07.513Z,6.57
2023-04-15T03:53:10.217Z,6.75
2023-04-15T03:56:12.955Z,6.83
2023-04-15T03:59:15.963Z,6.84
2023-04-15T04:02:18.858Z,6.74
2023-04-15T04:05:21.750Z,6.72
2023-04-15T04:08:24.579Z,6.65
2023-04-15T04:11:28.316Z,6.58
2023-04-15T04:14:31.145Z,6.62
2023-04-15T04:17:34.501Z,6.54
2023-04-15T04:20:37.401Z,6.77
2023-04-15T04:23:40.291Z,6.81
2023-04-15T04:26:43.062Z,7.02
2023-04-15T04:29:47.957Z,7.08
2023-04-15T04:32:51.792Z,7.16
2023-04-15T04:35:54.560Z,7.43
2023-04-15T04:38:57.809Z,7.57
2023-04-15T04:42:01.552Z,7.36
2023-04-15T04:45:04.655Z,7.62
2023-04-15T04:48:08.769Z,7.58
2023-04-15T04:51:11.696Z,7.57
2023-04-15T04:54:14.733Z,7.55
2023-04-15T04:57:17.411Z,7.39
2023-04-15T05:00:20.557Z,7.38
2023-04-15T05:03:23.496Z,7.36
2023-04-15T05:06:26.551Z,7.35
2023-04-15T05:09:32.552Z,7.30
2023-04-15T05:12:36.226Z,7.23
2023-04-15T05:15:41.408Z,7.27
2023-04-15T05:18:44.382Z,7.34
2023-04-15T05:21:47.267Z,7.34
2023-04-15T05:24:50.289Z,7.34
2023-04-15T05:27:53.074Z,7.42
2023-04-15T05:30:56.396Z,7.42
2023-04-15T05:33:59.378Z,7.54
2023-04-15T05:37:02.464Z,7.61
2023-04-15T05:40:05.585Z,7.57
2023-04-15T05:43:08.717Z,7.75
2023-04-15T05:46:11.520Z,7.82
2023-04-15T05:49:14.323Z,7.98
2023-04-15T05:52:17.114Z,8.08
2023-04-15T05:55:19.926Z,8.21
2023-04-15T05:58:22.723Z,8.19
2023-04-15T06:01:26.249Z,8.15
2023-04-15T06:04:29.276Z,8.28
2023-04-15T06:07:32.156Z,8.49
2023-04-15T06:10:36.962Z,8.73
2023-04-15T06:13:39.718Z,8.96
2023-04-15T06:16:42.637Z,9.17
2023-04-15T06:19:45.491Z,9.12
2023-04-15T06:22:48.508Z,9.24
2023-04-15T06:25:51.689Z,9.17
2023-04-15T06:28:54.676Z,9.01
2023-04-15T06:31:57.540Z,8.81
2023-04-15T06:35:00.389Z,8.74
2023-04-15T06:38:03.109Z,8.96
2023-04-15T06:41:06.014Z,9.20
2023-04-15T06:44:08.977Z,9.47
2023-04-15T06:47:13.282Z,9.85
2023-04-15T06:50:16.117Z,10.32
2023-04-15T06:53:19.074Z,10.63
2023-04-15T06:56:23.424Z,10.76
2023-04-15T06:59:27.422Z,10.70
2023-04-15T07:02:30.412Z,10.55
2023-04-15T07:05:33.689Z,10.39
2023-04-15T07:08:36.880Z,10.41
2023-04-15T07:11:39.617Z,10.67
2023-04-15T07:14:42.688Z,10.85
2023-04-15T07:17:45.529Z,11.08
2023-04-15T07:20:48.947Z,11.00
2023-04-15T07:23:52.114Z,10.59
2023-04-15T07:26:59.438Z,10.51
2023-04-15T07:30:03.733Z,10.70
2023-04-15T07:33:07.093Z,10.56
2023-04-15T07:36:10.648Z,10.42
2023-04-15T07:39:13.814Z,10.55
2023-04-15T07:42:17.080Z,10.68
2023-04-15T07:45:20.198Z,10.65
2023-04-15T07:48:22.967Z,10.83
2023-04-15T07:51:26.521Z,10.92
2023-04-15T07:54:29.420Z,10.85
2023-04-15T07:57:32.137Z,11.07
2023-04-15T08:00:34.899Z,11.02
2023-04-15T08:03:37.879Z,10.82
2023-04-15T08:06:40.791Z,10.97
2023-04-15T08:09:43.605Z,11.03
2023-04-15T08:12:49.440Z,11.01
2023-04-15T08:16:14.604Z,10.79
2023-04-15T08:19:17.786Z,11.02
2023-04-15T08:22:21.350Z,10.78
2023-04-15T08:25:25.100Z,10.94
2023-04-15T08:28:27.850Z,11.16
2023-04-15T08:31:30.876Z,11.45
2023-04-15T08:34:34.921Z,11.13
2023-04-15T08:37:37.681Z,10.90
2023-04-15T08:40:45.094Z,10.85
2023-04-15T08:43:57.636Z,11.02
2023-04-15T08:47:04.157Z,10.83
2023-04-15T08:50:09.656Z,10.83
2023-04-15T08:53:12.499Z,11.01
2023-04-15T08:56:19.162Z,11.41
2023-04-15T08:59:22.286Z,11.50
2023-04-15T09:02:27.472Z,11.67
2023-04-15T09:05:33.714Z,11.72
2023-04-15T09:08:36.522Z,12.25
2023-04-15T09:11:39.769Z,12.29
2023-04-15T09:14:43.719Z,12.47
2023-04-15T09:17:46.908Z,12.73
2023-04-15T09:20:53.858Z,12.47
2023-04-15T09:24:01.999Z,12.47
2023-04-15T09:27:05.641Z,11.91
2023-04-15T09:30:09.644Z,11.98
2023-04-15T09:33:14.908Z,11.92
2023-04-15T09:36:18.213Z,11.77
2023-04-15T09:39:21.567Z,12.04
2023-04-15T09:42:24.746Z,11.87
2023-04-15T09:45:29.643Z,11.90
2023-04-15T09:48:32.739Z,12.02
2023-04-15T09:51:35.915Z,11.79
2023-04-15T09:54:39.376Z,11.79
2023-04-15T09:57:42.533Z,11.62
2023-04-15T10:00:47.731Z,11.61
2023-04-15T10:03:51.673Z,11.95
2023-04-15T10:06:54.688Z,12.25
2023-04-15T10:10:00.088Z,12.85
2023-04-15T10:13:02.908Z,13.45
2023-04-15T10:16:06.737Z,14.10
2023-04-15T10:19:11.333Z,14.13
2023-04-15T10:22:15.630Z,14.45
2023-04-15T10:25:19.277Z,14.90
2023-04-15T10:28:25.183Z,15.20
2023-04-15T10:31:29.200Z,15.06
2023-04-15T10:34:32.880Z,14.36
2023-04-15T10:37:37.717Z,14.28
2023-04-15T10:40:40.577Z,14.45
2023-04-15T10:44:04.358Z,14.75
2023-04-15T10:47:12.795Z,14.22
2023-04-15T10:50:15.634Z,13.54
2023-04-15T10:53:28.338Z,13.58
2023-04-15T10:56:31.808Z,14.01
2023-04-15T10:59:39.073Z,14.17
2023-04-15T11:02:53.841Z,14.23
2023-04-15T11:05:57.143Z,14.14
2023-04-15T11:09:02.877Z,14.04
2023-04-15T11:12:10.624Z,14.08
2023-04-15T11:15:39.058Z,14.24
2023-04-15T11:18:41.909Z,14.45
2023-04-15T11:21:44.632Z,14.33
2023-04-15T11:24:50.692Z,14.38
2023-04-15T11:27:54.738Z,14.27
2023-04-15T11:30:58.807Z,14.05
2023-04-15T11:34:03.055Z,14.07
2023-04-15T11:37:07.981Z,14.06
2023-04-15T11:40:12.973Z,14.21
2023-04-15T11:43:21.207Z,14.35
2023-04-15T11:46:32.539Z,14.06
2023-04-15T11:49:38.479Z,14.24
2023-04-15T11:52:41.249Z,14.57
2023-04-15T11:55:45.628Z,14.93
2023-04-15T11:58:51.007Z,15.59
2023-04-15T12:01:54.233Z,15.12
2023-04-15T12:05:05.314Z,14.89
2023-04-15T12:08:08.252Z,14.73
2023-04-15T12:11:11.190Z,14.38
2023-04-15T12:14:28.606Z,14.45
2023-04-15T12:17:31.780Z,14.52
2023-04-15T12:20:54.777Z,14.46
2023-04-15T12:24:02.445Z,14.33
2023-04-15T12:27:07.555Z,14.43
2023-04-15T12:30:11.820Z,14.70
2023-04-15T12:33:14.865Z,14.63
2023-04-15T12:36:17.840Z,14.95
2023-04-15T12:39:30.448Z,15.06
2023-04-15T12:42:33.663Z,15.07
2023-04-15T12:45:36.792Z,14.76
2023-04-15T12:48:40.715Z,15.05
2023-04-15T12:51:43.617Z,15.11
2023-04-15T12:54:46.413Z,14.91
2023-04-15T12:57:49.451Z,14.80
2023-04-15T13:00:52.173Z,14.46
2023-04-15T13:03:55.006Z,14.30
2023-04-15T13:06:57.795Z,14.78
2023-04-15T13:10:00.643Z,14.65
2023-04-15T13:13:03.631Z,14.75
2023-04-15T13:16:06.784Z,15.53
2023-04-15T13:19:09.792Z,15.78
2023-04-15T13:22:12.778Z,15.94
2023-04-15T13:25:15.701Z,15.57
2023-04-15T13:28:18.496Z,15.60
2023-04-15T13:31:21.577Z,15.30
2023-04-15T13:34:24.500Z,15.96
2023-04-15T13:37:28.313Z,15.97
2023-04-15T13:40:31.945Z,15.51
2023-04-15T13:43:34.818Z,15.77
2023-04-15T13:46:39.665Z,15.78
2023-04-15T13:49:42.903Z,16.05
2023-04-15T13:52:46.138Z,16.08
2023-04-15T13:55:50.232Z,15.96
2023-04-15T13:58:54.900Z,15.86
2023-04-15T14:01:57.717Z,16.13
2023-04-15T14:05:00.921Z,16.12
2023-04-15T14:08:03.934Z,16.56
2023-04-15T14:11:06.883Z,16.61
2023-04-15T14:14:09.663Z,16.40
2023-04-15T14:17:12.478Z,16.18
2023-04-15T14:20:17.221Z,16.20
2023-04-15T14:23:20.179Z,15.74
2023-04-15T14:26:23.029Z,16.44
2023-04-15T14:29:26.322Z,16.07
2023-04-15T14:32:29.057Z,16.69
2023-04-15T14:35:31.817Z,16.86
2023-04-15T14:38:39.890Z,16.79
2023-04-15T14:41:43.092Z,16.93
2023-04-15T14:44:46.481Z,17.77
2023-04-15T14:47:49.329Z,17.19
2023-04-15T14:50:52.709Z,16.51
2023-04-15T14:53:55.563Z,16.26
2023-04-15T14:56:58.920Z,16.14
2023-04-15T15:00:02.060Z,15.50
2023-04-15T15:03:12.657Z,16.28
2023-04-15T15:06:17.223Z,16.45
2023-04-15T15:09:22.246Z,16.54
2023-04-15T15:12:25.096Z,16.41
2023-04-15T15:15:29.317Z,16.01
2023-04-15T15:18:32.188Z,16.01
2023-04-15T15:21:35.073Z,15.77
2023-04-15T15:24:37.920Z,15.65
2023-04-15T15:27:40.737Z,15.80
2023-04-15T15:30:43.726Z,15.58
2023-04-15T15:33:46.808Z,15.45
2023-04-15T15:36:49.630Z,15.13
2023-04-15T15:39:53.393Z,15.34
2023-04-15T15:42:56.054Z,15.22
2023-04-15T15:45:58.789Z,15.23
2023-04-15T15:49:03.726Z,14.95
2023-04-15T15:52:06.764Z,14.79
2023-04-15T15:55:09.754Z,14.76
2023-04-15T15:58:12.612Z,14.65
2023-04-15T16:01:15.495Z,14.49
2023-04-15T16:04:18.597Z,14.55
2023-04-15T16:07:21.510Z,14.46
2023-04-15T16:10:24.294Z,14.26
2023-04-15T16:13:28.075Z,14.15
2023-04-15T16:16:31.091Z,13.87
2023-04-15T16:19:33.804Z,13.84
2023-04-15T16:22:36.789Z,13.68
2023-04-15T16:25:39.814Z,13.63
2023-04-15T16:28:43.004Z,12.95
2023-04-15T16:31:48.315Z,11.42
2023-04-15T16:34:52.734Z,11.03
2023-04-15T16:37:55.678Z,10.85
2023-04-15T16:41:00.482Z,10.74
2023-04-15T16:44:04.188Z,10.57
2023-04-15T16:47:09.100Z,10.41
2023-04-15T16:50:12.094Z,10.34
2023-04-15T16:53:16.154Z,10.19
2023-04-15T16:56:19.419Z,10.06
2023-04-15T16:59:22.200Z,10.05
2023-04-15T17:02:25.243Z,9.95
2023-04-15T17:05:28.144Z,9.79
2023-04-15T17:08:31.144Z,9.57
2023-04-15T17:11:35.244Z,9.25
2023-04-15T17:14:39.044Z,9.09
2023-04-15T17:17:41.795Z,9.17
2023-04-15T17:20:44.680Z,9.28
2023-04-15T17:23:47.380Z,9.29
2023-04-15T17:26:50.121Z,9.34
2023-04-15T17:29:53.112Z,9.40
2023-04-15T17:32:56.587Z,9.22
2023-04-15T17:35:59.413Z,9.20
2023-04-15T17:39:02.168Z,9.26
2023-04-15T17:42:07.434Z,9.21
2023-04-15T17:45:10.692Z,8.94
2023-04-15T17:48:14.583Z,8.71
2023-04-15T17:51:17.505Z,8.71
2023-04-15T17:54:20.633Z,8.46
2023-04-15T17:57:25.259Z,8.53
2023-04-15T18:00:28.266Z,8.59
2023-04-15T18:03:31.407Z,8.53
2023-04-15T18:06:34.890Z,8.53
2023-04-15T18:09:37.867Z,8.54
2023-04-15T18:12:40.656Z,8.68
2023-04-15T18:15:45.583Z,8.66
2023-04-15T18:18:49.676Z,8.49
2023-04-15T18:21:52.548Z,8.56
2023-04-15T18:24:57.855Z,8.56
2023-04-15T18:28:00.847Z,8.55
2023-04-15T18:31:04.036Z,8.72
2023-04-15T18:34:08.668Z,8.82
2023-04-15T18:37:12.060Z,8.83
2023-04-15T18:40:16.356Z,9.05
2023-04-15T18:43:19.771Z,9.13
2023-04-15T18:46:22.956Z,9.26
2023-04-15T18:49:27.493Z,9.22
2023-04-15T18:52:31.318Z,9.25
2023-04-15T18:55:34.781Z,9.27
2023-04-15T18:59:09.337Z,9.29
2023-04-15T19:02:02.389Z,9.20
2023-04-15T19:05:05.822Z,8.99
2023-04-15T19:08:08.889Z,8.97
2023-04-15T19:11:11.702Z,9.08
2023-04-15T19:14:14.716Z,9.17
2023-04-15T19:17:17.731Z,9.22
2023-04-15T19:20:20.956Z,9.02
2023-04-15T19:23:24.140Z,8.76
2023-04-15T19:26:27.242Z,8.73
2023-04-15T19:29:30.667Z,8.60
2023-04-15T19:32:33.646Z,8.71
2023-04-15T19:35:38.428Z,8.83
2023-04-15T19:38:41.512Z,9.01
2023-04-15T19:41:44.941Z,8.87
2023-04-15T19:44:47.722Z,8.72
2023-04-15T19:47:51.005Z,8.68
2023-04-15T19:50:54.080Z,8.73
2023-04-15T19:53:57.158Z,8.75
2023-04-15T19:57:00.215Z,8.72
2023-04-15T20:00:03.839Z,8.63
2023-04-15T20:03:09.189Z,8.47
2023-04-15T20:06:12.712Z,8.40
2023-04-15T20:09:16.028Z,8.35
2023-04-15T20:12:50.107Z,8.50
2023-04-15T20:15:42.639Z,8.68
2023-04-15T20:18:46.045Z,8.78
2023-04-15T20:21:51.351Z,8.79
2023-04-15T20:24:55.701Z,8.87
2023-04-15T20:28:00.881Z,8.88
2023-04-15T20:31:03.836Z,8.75
2023-04-15T20:34:07.185Z,8.82
2023-04-15T20:37:12.480Z,8.83
2023-04-15T20:40:16.131Z,8.87
2023-04-15T20:43:19.599Z,8.82
2023-04-15T20:46:23.543Z,8.38
2023-04-15T20:49:28.679Z,7.92
2023-04-15T20:52:31.749Z,7.94
2023-04-15T20:55:34.532Z,7.93
2023-04-15T20:58:38.714Z,7.81
2023-04-15T21:01:41.568Z,7.76
2023-04-15T21:04:44.387Z,7.77
2023-04-15T21:07:47.340Z,7.63
2023-04-15T21:10:50.029Z,7.83
2023-04-15T21:13:52.830Z,7.94
2023-04-15T21:16:58.385Z,8.03
2023-04-15T21:20:01.947Z,8.17
2023-04-15T21:23:04.661Z,8.20
2023-04-15T21:26:07.427Z,8.10
2023-04-15T21:29:12.339Z,8.15
2023-04-15T21:32:15.302Z,8.23
2023-04-15T21:35:18.075Z,8.16
2023-04-15T21:38:23.144Z,8.27
2023-04-15T21:41:26.815Z,8.37
2023-04-15T21:44:29.743Z,8.42
2023-04-15T21:47:32.552Z,8.41
2023-04-15T21:51:01.726Z,7.97
2023-04-15T21:54:04.540Z,8.05
2023-04-15T21:57:07.274Z,8.35
2023-04-15T22:00:11.063Z,8.46
2023-04-15T22:03:13.839Z,8.53
2023-04-15T22:06:16.828Z,8.50
2023-04-15T22:09:19.730Z,8.53
2023-04-15T22:12:22.594Z,8.59
2023-04-15T22:15:25.323Z,8.60
2023-04-15T22:18:28.144Z,8.47
2023-04-15T22:21:31.929Z,8.48
2023-04-15T22:24:40.153Z,8.47
2023-04-15T22:27:43.511Z,8.38
2023-04-15T22:30:46.239Z,8.21
2023-04-15T22:33:48.922Z,7.89
2023-04-15T22:36:52.728Z,7.82
2023-04-15T22:39:55.668Z,7.80
2023-04-15T22:42:58.425Z,7.80
2023-04-15T22:46:01.486Z,7.86
2023-04-15T22:49:09.326Z,7.91
2023-04-15T22:52:14.569Z,8.01
2023-04-15T22:55:26.421Z,8.13
2023-04-15T22:58:32.168Z,8.21
2023-04-15T23:01:35.279Z,8.28
2023-04-15T23:04:38.278Z,8.42
2023-04-15T23:07:41.237Z,8.54
2023-04-15T23:10:44.778Z,8.65
2023-04-15T23:13:47.763Z,8.71
2023-04-15T23:16:50.504Z,8.62
2023-04-15T23:19:53.280Z,8.64
2023-04-15T23:22:56.042Z,8.84
2023-04-15T23:25:59.104Z,8.79
2023-04-15T23:29:02.012Z,8.73
2023-04-15T23:32:05.121Z,8.73
2023-04-15T23:35:08.268Z,8.67
2023-04-15T23:38:11.113Z,8.55
2023-04-15T23:41:13.959Z,8.55
2023-04-15T23:44:16.980Z,8.76
2023-04-15T23:47:19.732Z,8.79
2023-04-15T23:50:22.522Z,8.61
2023-04-15T23:53:25.279Z,8.31
2023-04-15T23:56:28.002Z,8.03
2023-04-15T23:59:30.903Z,7.91
